Time;durP1;ratioP1;P1;durP2;ratioP2;P2;SDS_P1;SDS_P2;PMS_P1;PMS_P2;Temp;Humidity;BMP_temperature;BMP_pressure;BME280_temperature;BME280_humidity;BME280_pressure;Samples;Min_cycle;Max_cycle;Signal;HPM_P1;HPM_P2
2022/08/28 00:01:22;;;;;;;;;;;25.60;44.40;;;;;;8434765;28;20421;-43
2022/08/28 00:05:23;;;;;;;;;;;25.60;44.40;;;;;;8434214;28;19965;-43
2022/08/28 00:09:24;;;;;;;;;;;25.60;44.40;;;;;;8434276;28;19976;-43
2022/08/28 00:13:24;;;;;;;;;;;25.50;44.30;;;;;;8433200;28;19919;-43
2022/08/28 00:17:25;;;;;;;;;;;25.60;44.40;;;;;;8433876;28;20257;-43
2022/08/28 00:21:26;;;;;;;;;;;25.60;44.40;;;;;;8433954;28;19923;-43
2022/08/28 00:25:27;;;;;;;;;;;25.60;44.30;;;;;;8434244;28;19957;-43
2022/08/28 00:29:28;;;;;;;;;;;25.50;44.30;;;;;;8433217;28;19932;-43
2022/08/28 00:33:30;;;;;;;;;;;25.50;44.30;;;;;;8433527;28;19919;-42
2022/08/28 00:37:30;;;;;;;;;;;25.50;44.30;;;;;;8433919;28;19920;-42
2022/08/28 00:41:31;;;;;;;;;;;25.50;44.30;;;;;;8432977;28;19920;-44
2022/08/28 00:45:32;;;;;;;;;;;25.50;44.30;;;;;;8433339;28;19916;-43
2022/08/28 00:49:34;;;;;;;;;;;25.50;44.30;;;;;;8432937;28;19971;-43
2022/08/28 00:53:35;;;;;;;;;;;25.50;44.30;;;;;;8432469;28;19927;-43
2022/08/28 00:57:41;;;;;;;;;;;25.50;44.30;;;;;;8433135;28;20002;-43
2022/08/28 01:01:42;;;;;;;;;;;25.40;44.30;;;;;;8432824;28;19984;-43
2022/08/28 01:05:46;;;;;;;;;;;25.40;44.30;;;;;;8432143;28;19966;-41
2022/08/28 01:09:48;;;;;;;;;;;25.40;44.30;;;;;;8431646;28;19927;-42
2022/08/28 01:13:50;;;;;;;;;;;25.40;44.30;;;;;;8432235;28;19922;-41
2022/08/28 01:17:52;;;;;;;;;;;25.40;44.30;;;;;;8431822;28;19920;-44
2022/08/28 01:22:01;;;;;;;;;;;25.40;44.30;;;;;;8431930;28;19920;-42
2022/08/28 01:26:02;;;;;;;;;;;25.40;44.30;;;;;;8431377;28;19912;-42
2022/08/28 01:30:03;;;;;;;;;;;25.40;44.30;;;;;;8431983;28;19951;-42
2022/08/28 01:34:04;;;;;;;;;;;25.40;44.30;;;;;;8431650;28;19920;-43
2022/08/28 01:38:05;;;;;;;;;;;25.40;44.30;;;;;;8431289;28;19916;-42
2022/08/28 01:42:05;;;;;;;;;;;25.40;44.30;;;;;;8431682;28;19923;-42
2022/08/28 01:46:08;;;;;;;;;;;25.30;44.20;;;;;;8431349;28;20284;-44
2022/08/28 01:50:10;;;;;;;;;;;25.40;44.30;;;;;;8430680;28;19926;-42
2022/08/28 01:54:10;;;;;;;;;;;25.40;44.30;;;;;;8430993;28;19957;-43
2022/08/28 01:58:11;;;;;;;;;;;25.40;44.30;;;;;;8431322;28;19916;-43
2022/08/28 02:02:11;;;;;;;;;;;25.40;44.30;;;;;;8430341;28;19923;-44
2022/08/28 02:06:12;;;;;;;;;;;25.30;44.20;;;;;;8430782;28;19998;-43
2022/08/28 02:10:13;;;;;;;;;;;25.30;44.20;;;;;;8430581;28;19921;-49
2022/08/28 02:14:15;;;;;;;;;;;25.30;44.20;;;;;;8411704;28;19920;-43
2022/08/28 02:18:16;;;;;;;;;;;25.30;44.20;;;;;;8430627;28;19919;-43
2022/08/28 02:22:16;;;;;;;;;;;25.30;44.30;;;;;;8430433;28;19916;-44
2022/08/28 02:26:17;;;;;;;;;;;25.30;44.20;;;;;;8430046;28;19923;-43
2022/08/28 02:30:18;;;;;;;;;;;25.30;44.20;;;;;;8429965;28;20291;-43
2022/08/28 02:34:18;;;;;;;;;;;25.30;44.20;;;;;;8429494;28;19923;-44
2022/08/28 02:38:19;;;;;;;;;;;25.30;44.20;;;;;;8429836;28;19923;-43
2022/08/28 02:42:19;;;;;;;;;;;25.30;44.20;;;;;;8429860;28;19916;-44
2022/08/28 02:46:20;;;;;;;;;;;25.20;44.20;;;;;;8429992;28;19912;-43
2022/08/28 02:50:21;;;;;;;;;;;25.20;44.20;;;;;;8429303;28;20490;-44
2022/08/28 02:54:21;;;;;;;;;;;25.20;44.20;;;;;;8429998;28;19912;-43
2022/08/28 02:58:22;;;;;;;;;;;25.20;44.20;;;;;;8429914;28;19923;-43
2022/08/28 03:02:23;;;;;;;;;;;25.20;44.20;;;;;;8429242;28;20349;-43
2022/08/28 03:06:23;;;;;;;;;;;25.20;44.20;;;;;;8429424;28;20376;-43
2022/08/28 03:10:24;;;;;;;;;;;25.20;44.20;;;;;;8429348;28;20010;-43
2022/08/28 03:14:25;;;;;;;;;;;25.20;44.20;;;;;;8429057;28;19927;-43
2022/08/28 03:18:26;;;;;;;;;;;25.20;44.20;;;;;;8429477;28;19950;-43
2022/08/28 03:26:46;;;;;;;;;;;25.20;44.20;;;;;;8428824;28;19923;-43
2022/08/28 03:30:48;;;;;;;;;;;25.20;44.20;;;;;;8429110;28;20414;-44
2022/08/28 03:34:48;;;;;;;;;;;25.20;44.20;;;;;;8429016;28;19916;-43
2022/08/28 03:38:50;;;;;;;;;;;25.10;44.10;;;;;;8428708;28;19956;-43
2022/08/28 03:42:51;;;;;;;;;;;25.10;44.20;;;;;;8428921;28;20373;-44
2022/08/28 03:46:51;;;;;;;;;;;25.20;44.20;;;;;;8430774;28;19912;-43
2022/08/28 03:50:52;;;;;;;;;;;25.10;44.10;;;;;;8434483;28;20002;-44
2022/08/28 03:54:52;;;;;;;;;;;25.10;44.10;;;;;;8434950;28;19920;-44
2022/08/28 03:58:56;;;;;;;;;;;25.10;44.20;;;;;;8435022;28;19916;-44
2022/08/28 04:02:56;;;;;;;;;;;25.10;44.10;;;;;;8432826;28;19916;-43
2022/08/28 04:06:57;;;;;;;;;;;25.10;44.20;;;;;;8434786;28;19916;-44
2022/08/28 04:10:59;;;;;;;;;;;25.10;44.20;;;;;;8434361;28;20019;-43
2022/08/28 04:15:00;;;;;;;;;;;25.10;44.20;;;;;;8433656;28;19923;-43
2022/08/28 04:19:00;;;;;;;;;;;25.10;44.70;;;;;;8434611;28;19916;-44
2022/08/28 04:23:02;;;;;;;;;;;25.10;44.20;;;;;;8433982;28;20015;-43
2022/08/28 04:27:03;;;;;;;;;;;25.10;44.20;;;;;;8433515;28;19916;-43
2022/08/28 04:31:04;;;;;;;;;;;25.00;44.20;;;;;;8433926;28;19923;-43
2022/08/28 04:35:05;;;;;;;;;;;25.00;44.10;;;;;;8433408;28;19916;-43
2022/08/28 04:39:07;;;;;;;;;;;25.00;44.10;;;;;;8433637;28;19912;-44
2022/08/28 04:43:07;;;;;;;;;;;25.00;44.10;;;;;;8433244;28;19917;-44
2022/08/28 04:47:08;;;;;;;;;;;25.00;44.10;;;;;;8432732;28;20368;-43
2022/08/28 04:51:09;;;;;;;;;;;25.00;44.10;;;;;;8433342;28;20391;-43
2022/08/28 04:55:10;;;;;;;;;;;25.00;44.10;;;;;;8432875;28;19923;-44
2022/08/28 04:59:11;;;;;;;;;;;25.00;44.10;;;;;;8432132;28;19916;-43
2022/08/28 05:03:11;;;;;;;;;;;25.00;44.10;;;;;;8432909;28;19916;-43
2022/08/28 05:07:12;;;;;;;;;;;25.00;44.20;;;;;;8432684;28;20007;-43
2022/08/28 05:11:14;;;;;;;;;;;25.00;44.20;;;;;;8432019;28;20445;-43
2022/08/28 05:15:15;;;;;;;;;;;25.00;44.20;;;;;;8432081;28;19967;-43
2022/08/28 05:19:16;;;;;;;;;;;25.00;44.20;;;;;;8432536;28;19916;-43
2022/08/28 05:23:16;;;;;;;;;;;25.00;44.20;;;;;;8431512;28;19912;-43
2022/08/28 05:27:17;;;;;;;;;;;25.00;44.10;;;;;;8432298;28;20380;-43
2022/08/28 05:31:19;;;;;;;;;;;25.00;44.20;;;;;;8431674;28;19955;-43
2022/08/28 05:35:20;;;;;;;;;;;24.90;44.10;;;;;;8431439;28;20285;-43
2022/08/28 05:39:20;;;;;;;;;;;25.00;44.20;;;;;;8431659;28;19961;-44
2022/08/28 05:43:21;;;;;;;;;;;25.00;44.20;;;;;;8431520;28;19957;-43
2022/08/28 05:47:21;;;;;;;;;;;24.90;44.20;;;;;;8430936;28;19959;-43
2022/08/28 05:51:22;;;;;;;;;;;24.90;44.20;;;;;;8431129;28;19927;-43
2022/08/28 05:55:23;;;;;;;;;;;24.90;44.20;;;;;;8431396;28;20391;-42
2022/08/28 05:59:24;;;;;;;;;;;24.90;44.20;;;;;;8430608;28;19916;-42
2022/08/28 06:03:24;;;;;;;;;;;24.90;44.20;;;;;;8430780;28;19916;-42
2022/08/28 06:07:25;;;;;;;;;;;24.90;44.70;;;;;;8430697;28;19939;-42
2022/08/28 06:11:27;;;;;;;;;;;24.90;44.20;;;;;;8429373;28;20015;-43
2022/08/28 06:15:27;;;;;;;;;;;24.90;44.70;;;;;;8430536;28;19927;-42
2022/08/28 06:19:29;;;;;;;;;;;24.90;44.70;;;;;;8430508;28;19916;-42
2022/08/28 06:23:29;;;;;;;;;;;24.90;44.20;;;;;;8430193;28;19924;-42
2022/08/28 06:27:32;;;;;;;;;;;24.90;44.20;;;;;;8430392;28;19916;-42
2022/08/28 06:31:32;;;;;;;;;;;24.90;44.20;;;;;;8430127;28;19999;-42
2022/08/28 06:35:33;;;;;;;;;;;24.90;44.20;;;;;;8429881;28;20395;-42
2022/08/28 06:39:33;;;;;;;;;;;24.90;44.20;;;;;;8429900;28;20327;-43
2022/08/28 06:43:34;;;;;;;;;;;24.90;44.20;;;;;;8429985;28;20368;-44
2022/08/28 06:47:35;;;;;;;;;;;24.90;44.20;;;;;;8429327;28;19916;-43
2022/08/28 06:51:35;;;;;;;;;;;24.90;44.20;;;;;;8429664;28;19920;-44
2022/08/28 06:55:36;;;;;;;;;;;24.90;44.20;;;;;;8430000;28;19970;-42
2022/08/28 06:59:36;;;;;;;;;;;24.90;44.20;;;;;;8429015;28;20296;-43
2022/08/28 07:03:38;;;;;;;;;;;24.90;44.20;;;;;;8429594;28;19970;-42
2022/08/28 07:07:39;;;;;;;;;;;24.90;44.20;;;;;;8429306;28;19938;-42
2022/08/28 07:11:42;;;;;;;;;;;24.90;44.10;;;;;;8427679;28;19930;-42
2022/08/28 07:15:42;;;;;;;;;;;24.90;44.10;;;;;;8429296;28;20323;-43
2022/08/28 07:19:43;;;;;;;;;;;24.90;44.10;;;;;;8429227;28;19917;-42
2022/08/28 07:23:44;;;;;;;;;;;24.90;44.20;;;;;;8435301;28;19920;-43
2022/08/28 07:27:44;;;;;;;;;;;24.90;44.20;;;;;;8435867;28;19922;-43
2022/08/28 07:31:46;;;;;;;;;;;24.90;44.10;;;;;;8435537;28;19924;-42
2022/08/28 07:35:46;;;;;;;;;;;24.90;44.10;;;;;;8435069;28;19919;-43
2022/08/28 07:39:47;;;;;;;;;;;24.90;44.10;;;;;;8435249;28;19916;-43
2022/08/28 07:48:07;;;;;;;;;;;24.90;44.10;;;;;;8434491;28;20015;-43
2022/08/28 07:52:08;;;;;;;;;;;24.90;44.10;;;;;;8434880;28;19916;-43
2022/08/28 07:56:10;;;;;;;;;;;24.90;44.10;;;;;;8434041;28;19912;-43
2022/08/28 08:00:12;;;;;;;;;;;24.90;44.20;;;;;;8434644;28;20026;-43
2022/08/28 08:04:13;;;;;;;;;;;24.90;44.20;;;;;;8434276;28;19916;-43
2022/08/28 08:08:13;;;;;;;;;;;24.90;44.20;;;;;;8433863;28;19920;-43
2022/08/28 08:12:14;;;;;;;;;;;24.90;44.60;;;;;;8434169;28;19952;-43
2022/08/28 08:16:18;;;;;;;;;;;25.00;44.20;;;;;;8434374;28;20280;-42
2022/08/28 08:20:19;;;;;;;;;;;24.90;44.10;;;;;;8433872;28;19916;-43
2022/08/28 08:24:19;;;;;;;;;;;24.90;44.10;;;;;;8433870;28;19994;-43
2022/08/28 08:28:20;;;;;;;;;;;24.90;44.10;;;;;;8433884;28;19920;-44
2022/08/28 08:32:20;;;;;;;;;;;25.00;44.20;;;;;;8432157;28;19916;-43
2022/08/28 08:36:21;;;;;;;;;;;25.00;44.10;;;;;;8433844;28;19999;-43
2022/08/28 08:40:22;;;;;;;;;;;25.00;44.10;;;;;;8432979;28;19998;-44
2022/08/28 08:44:31;;;;;;;;;;;25.00;44.10;;;;;;8432981;28;20253;-43
2022/08/28 08:48:33;;;;;;;;;;;25.00;44.10;;;;;;8415180;28;20006;-43
2022/08/28 08:52:48;;;;;;;;;;;25.00;44.10;;;;;;8433211;28;19950;-44
2022/08/28 08:56:50;;;;;;;;;;;25.00;44.10;;;;;;8432416;28;19935;-42
2022/08/28 09:01:00;;;;;;;;;;;25.00;44.10;;;;;;8433056;28;19919;-44
2022/08/28 09:05:03;;;;;;;;;;;25.00;44.00;;;;;;8432593;28;19920;-44
2022/08/28 09:09:06;;;;;;;;;;;25.00;44.00;;;;;;8414005;28;19955;-42
2022/08/28 09:13:27;;;;;;;;;;;25.00;44.00;;;;;;8432281;28;20276;-43
2022/08/28 09:17:30;;;;;;;;;;;25.10;44.00;;;;;;8431780;28;19927;-43
2022/08/28 09:21:32;;;;;;;;;;;25.10;44.00;;;;;;8432768;28;20399;-43
2022/08/28 09:25:47;;;;;;;;;;;25.10;44.00;;;;;;8431953;28;19923;-43
2022/08/28 09:29:56;;;;;;;;;;;25.10;44.00;;;;;;8431290;28;19971;-42
2022/08/28 09:34:14;;;;;;;;;;;25.10;43.90;;;;;;8432170;28;19916;-43
2022/08/28 09:38:22;;;;;;;;;;;25.10;43.90;;;;;;8431301;28;19965;-43
2022/08/28 09:46:45;;;;;;;;;;;25.10;43.90;;;;;;8435632;28;20280;-43
2022/08/28 09:51:02;;;;;;;;;;;25.20;43.90;;;;;;8412624;28;20032;-44
2022/08/28 09:55:03;;;;;;;;;;;25.20;43.90;;;;;;8431985;28;19920;-43
2022/08/28 09:59:03;;;;;;;;;;;25.20;43.90;;;;;;8430589;28;19958;-43
2022/08/28 10:03:04;;;;;;;;;;;25.20;43.90;;;;;;8430918;28;20368;-43
2022/08/28 10:07:23;;;;;;;;;;;25.20;43.80;;;;;;8431115;28;19916;-43
2022/08/28 10:11:26;;;;;;;;;;;25.20;43.80;;;;;;8396833;28;20343;-42
2022/08/28 10:15:45;;;;;;;;;;;25.20;43.80;;;;;;8424504;28;19927;-42
2022/08/28 10:19:58;;;;;;;;;;;25.20;43.80;;;;;;8430526;28;19965;-43
2022/08/28 10:24:08;;;;;;;;;;;25.20;43.80;;;;;;8429873;28;19916;-42
2022/08/28 10:28:14;;;;;;;;;;;25.20;43.80;;;;;;8430004;28;19956;-41
2022/08/28 10:32:20;;;;;;;;;;;25.20;43.80;;;;;;8429830;28;19920;-42
2022/08/28 10:36:25;;;;;;;;;;;25.20;43.80;;;;;;8430065;28;19917;-42
2022/08/28 10:40:33;;;;;;;;;;;25.30;43.80;;;;;;8429938;28;19985;-42
2022/08/28 10:44:46;;;;;;;;;;;25.30;43.80;;;;;;8429421;28;19973;-41
2022/08/28 10:48:47;;;;;;;;;;;25.30;43.80;;;;;;8429642;28;19952;-42
2022/08/28 10:52:52;;;;;;;;;;;25.30;43.80;;;;;;8429821;28;19916;-42
2022/08/28 10:56:57;;;;;;;;;;;25.30;44.30;;;;;;8436168;28;19916;-42
2022/08/28 11:01:00;;;;;;;;;;;25.30;43.70;;;;;;8441029;28;20353;-42
2022/08/28 11:05:02;;;;;;;;;;;25.30;43.70;;;;;;8440731;28;19916;-41
2022/08/28 11:09:25;;;;;;;;;;;25.40;43.70;;;;;;8440593;28;19931;-41
2022/08/28 11:13:44;;;;;;;;;;;25.40;43.70;;;;;;8440525;28;19962;-43
2022/08/28 11:17:46;;;;;;;;;;;25.40;43.60;;;;;;8440010;28;19970;-43
2022/08/28 11:21:50;;;;;;;;;;;25.40;43.60;;;;;;8440701;28;19923;-43
2022/08/28 11:26:00;;;;;;;;;;;25.40;43.60;;;;;;8422328;28;19920;-42
2022/08/28 11:30:04;;;;;;;;;;;25.50;43.60;;;;;;8388128;28;19929;-44
2022/08/28 11:34:05;;;;;;;;;;;25.40;43.50;;;;;;8417896;28;20301;-42
2022/08/28 11:38:05;;;;;;;;;;;25.50;43.50;;;;;;8421417;28;19923;-42
2022/08/28 11:42:09;;;;;;;;;;;25.50;43.50;;;;;;8440192;28;19919;-42
2022/08/28 11:46:12;;;;;;;;;;;25.50;43.50;;;;;;8440114;28;19939;-42
2022/08/28 11:50:26;;;;;;;;;;;25.50;43.50;;;;;;8439298;28;19927;-42
2022/08/28 11:54:28;;;;;;;;;;;25.50;43.50;;;;;;8421482;28;21377;-42
2022/08/28 11:58:47;;;;;;;;;;;25.50;43.50;;;;;;8440007;28;19912;-42
2022/08/28 12:02:50;;;;;;;;;;;25.50;43.40;;;;;;8439477;28;20303;-43
2022/08/28 12:06:53;;;;;;;;;;;25.60;43.50;;;;;;8436837;28;19916;-41
2022/08/28 12:10:55;;;;;;;;;;;25.60;43.50;;;;;;8434443;28;19924;-41
2022/08/28 12:14:58;;;;;;;;;;;25.60;43.50;;;;;;8433553;28;19920;-41
2022/08/28 12:19:00;;;;;;;;;;;25.60;43.50;;;;;;8434039;28;19912;-41
2022/08/28 12:23:02;;;;;;;;;;;25.50;43.50;;;;;;8434323;28;19920;-42
2022/08/28 12:27:05;;;;;;;;;;;25.60;44.00;;;;;;8433812;28;19916;-42
2022/08/28 12:31:08;;;;;;;;;;;25.60;43.50;;;;;;8433808;28;20273;-42
2022/08/28 12:35:15;;;;;;;;;;;25.60;43.50;;;;;;8433019;28;20225;-42
2022/08/28 12:39:17;;;;;;;;;;;25.60;43.40;;;;;;8433798;28;19919;-43
2022/08/28 12:43:38;;;;;;;;;;;25.60;43.40;;;;;;8433397;28;19935;-42
2022/08/28 12:47:42;;;;;;;;;;;25.60;43.40;;;;;;8414054;28;20003;-43
2022/08/28 12:51:42;;;;;;;;;;;25.60;43.40;;;;;;8414911;28;19955;-43
2022/08/28 12:55:44;;;;;;;;;;;25.70;43.40;;;;;;8414958;28;19912;-42
2022/08/28 12:59:46;;;;;;;;;;;25.70;43.40;;;;;;8432210;28;19920;-41
2022/08/28 13:03:52;;;;;;;;;;;25.70;43.40;;;;;;8432669;28;19927;-41
2022/08/28 13:07:54;;;;;;;;;;;25.70;43.30;;;;;;8433025;28;19916;-42
2022/08/28 13:11:54;;;;;;;;;;;25.70;43.30;;;;;;8430862;28;20200;-43
2022/08/28 13:16:21;;;;;;;;;;;25.80;43.30;;;;;;8432494;28;19977;-42
2022/08/28 13:20:32;;;;;;;;;;;25.80;43.30;;;;;;8392442;28;19919;-42
2022/08/28 13:24:41;;;;;;;;;;;25.80;43.30;;;;;;8413444;28;19912;-42
2022/08/28 13:28:42;;;;;;;;;;;25.80;43.30;;;;;;8431479;28;20368;-43
2022/08/28 13:32:53;;;;;;;;;;;25.80;43.30;;;;;;8431329;28;19916;-43
2022/08/28 13:36:56;;;;;;;;;;;25.80;43.30;;;;;;8437690;28;19917;-42
2022/08/28 13:40:58;;;;;;;;;;;25.80;43.30;;;;;;8431450;28;19912;-41
2022/08/28 13:44:59;;;;;;;;;;;25.80;43.20;;;;;;8430991;28;19916;-42
2022/08/28 13:48:59;;;;;;;;;;;25.80;43.20;;;;;;8413036;28;19928;-43
2022/08/28 13:53:00;;;;;;;;;;;25.80;43.20;;;;;;8431562;28;20360;-42
2022/08/28 13:57:01;;;;;;;;;;;25.80;43.20;;;;;;8430533;28;19924;-44
2022/08/28 14:01:01;;;;;;;;;;;25.90;43.20;;;;;;8431142;28;20341;-43
2022/08/28 14:05:02;;;;;;;;;;;25.90;43.20;;;;;;8431283;28;19942;-43
2022/08/28 14:09:02;;;;;;;;;;;25.90;43.20;;;;;;8430776;28;19920;-42
2022/08/28 14:13:03;;;;;;;;;;;25.90;43.10;;;;;;8412906;28;19916;-42
2022/08/28 14:17:04;;;;;;;;;;;25.90;43.10;;;;;;8411665;28;20385;-42
2022/08/28 14:21:05;;;;;;;;;;;25.90;43.20;;;;;;8430484;28;20010;-42
2022/08/28 14:25:06;;;;;;;;;;;25.90;43.10;;;;;;8430416;28;20407;-42
2022/08/28 14:29:08;;;;;;;;;;;25.90;43.10;;;;;;8429707;28;19925;-42
2022/08/28 14:33:08;;;;;;;;;;;25.90;43.10;;;;;;8429859;28;19919;-42
2022/08/28 14:37:09;;;;;;;;;;;25.90;43.10;;;;;;8430153;28;20353;-43
2022/08/28 14:41:09;;;;;;;;;;;25.90;43.10;;;;;;8429548;28;19953;-43
2022/08/28 14:45:10;;;;;;;;;;;25.90;43.10;;;;;;8411815;28;19919;-43
2022/08/28 14:49:12;;;;;;;;;;;25.90;43.10;;;;;;8429929;28;19927;-42
2022/08/28 14:53:13;;;;;;;;;;;25.90;43.00;;;;;;8429623;28;19967;-42
2022/08/28 14:57:13;;;;;;;;;;;25.90;43.00;;;;;;8429790;28;19952;-42
2022/08/28 15:01:27;;;;;;;;;;;25.90;43.00;;;;;;8430024;28;19912;-42
2022/08/28 15:05:28;;;;;;;;;;;25.90;43.00;;;;;;8429342;28;20376;-42
2022/08/28 15:09:28;;;;;;;;;;;25.90;43.00;;;;;;8429739;28;19920;-41
2022/08/28 15:13:29;;;;;;;;;;;25.90;43.00;;;;;;8430147;28;19970;-42
2022/08/28 15:17:29;;;;;;;;;;;25.90;43.00;;;;;;8428894;28;19966;-42
2022/08/28 15:21:32;;;;;;;;;;;26.00;43.00;;;;;;8429683;28;19916;-42
2022/08/28 15:25:32;;;;;;;;;;;26.00;43.00;;;;;;8429419;28;19920;-42
2022/08/28 15:29:32;;;;;;;;;;;26.00;43.00;;;;;;8428768;28;19921;-42
2022/08/28 15:33:33;;;;;;;;;;;26.00;43.00;;;;;;8429410;28;19912;-44
2022/08/28 15:37:33;;;;;;;;;;;26.00;43.00;;;;;;8394284;28;19923;-42
2022/08/28 15:41:35;;;;;;;;;;;25.90;43.00;;;;;;8429956;28;19916;-42
2022/08/28 15:45:37;;;;;;;;;;;26.00;43.00;;;;;;8435515;28;20337;-42
2022/08/28 15:49:37;;;;;;;;;;;26.00;43.00;;;;;;8434929;28;19965;-42
2022/08/28 15:53:38;;;;;;;;;;;25.90;43.00;;;;;;8434703;28;20014;-42
2022/08/28 15:57:38;;;;;;;;;;;25.90;43.00;;;;;;8434954;28;19916;-42
2022/08/28 16:01:39;;;;;;;;;;;25.90;43.00;;;;;;8427151;28;19980;-42
2022/08/28 16:05:39;;;;;;;;;;;26.00;43.00;;;;;;8409991;28;20003;-42
2022/08/28 16:09:39;;;;;;;;;;;25.90;43.00;;;;;;8434598;28;19955;-42
2022/08/28 16:13:40;;;;;;;;;;;25.90;43.00;;;;;;8434718;28;19919;-43
2022/08/28 16:17:40;;;;;;;;;;;25.90;43.00;;;;;;8433766;28;19920;-42
2022/08/28 16:21:41;;;;;;;;;;;25.90;43.00;;;;;;8434322;28;19999;-43
2022/08/28 16:25:42;;;;;;;;;;;25.90;43.00;;;;;;8434304;28;19917;-42
2022/08/28 16:29:43;;;;;;;;;;;25.90;43.00;;;;;;8433718;28;20403;-43
2022/08/28 16:33:43;;;;;;;;;;;25.90;43.00;;;;;;8415728;28;19923;-43
2022/08/28 16:37:44;;;;;;;;;;;25.90;43.00;;;;;;8415859;28;20361;-42
2022/08/28 16:41:48;;;;;;;;;;;25.90;43.00;;;;;;8433122;28;19961;-43
2022/08/28 16:45:49;;;;;;;;;;;26.00;43.00;;;;;;8433060;28;19970;-42
2022/08/28 16:49:50;;;;;;;;;;;26.00;43.00;;;;;;8398687;28;19930;-42
2022/08/28 16:53:50;;;;;;;;;;;26.00;42.90;;;;;;8432088;28;19916;-42
2022/08/28 16:57:51;;;;;;;;;;;26.00;43.00;;;;;;8433523;28;19920;-42
2022/08/28 17:01:52;;;;;;;;;;;26.00;43.00;;;;;;8433006;28;20011;-42
2022/08/28 17:05:53;;;;;;;;;;;26.00;43.50;;;;;;8432450;28;19952;-43
2022/08/28 17:09:54;;;;;;;;;;;26.00;43.00;;;;;;8432879;28;20010;-42
2022/08/28 17:13:54;;;;;;;;;;;26.00;42.90;;;;;;8414458;28;20299;-42
2022/08/28 17:17:55;;;;;;;;;;;26.00;43.00;;;;;;8413760;28;20372;-42
2022/08/28 17:26:15;;;;;;;;;;;25.90;42.90;;;;;;8434216;28;19925;-43
2022/08/28 17:30:17;;;;;;;;;;;26.00;43.00;;;;;;8432077;28;19928;-42
2022/08/28 17:34:20;;;;;;;;;;;26.00;43.00;;;;;;8432314;28;20317;-42
2022/08/28 17:38:20;;;;;;;;;;;25.90;42.90;;;;;;8430939;28;19920;-42
2022/08/28 17:42:21;;;;;;;;;;;25.90;42.90;;;;;;8413875;28;20003;-42
2022/08/28 17:46:22;;;;;;;;;;;25.90;43.00;;;;;;8431523;28;19916;-42
2022/08/28 17:50:22;;;;;;;;;;;25.90;42.90;;;;;;8430805;28;19928;-42
2022/08/28 17:54:23;;;;;;;;;;;25.90;43.00;;;;;;8431853;28;19913;-42
2022/08/28 17:58:24;;;;;;;;;;;25.90;43.00;;;;;;8431372;28;19923;-42
2022/08/28 18:02:25;;;;;;;;;;;25.90;43.00;;;;;;8430699;28;19919;-42
2022/08/28 18:06:25;;;;;;;;;;;25.90;43.00;;;;;;8430250;28;19951;-42
2022/08/28 18:10:26;;;;;;;;;;;25.90;43.00;;;;;;8430750;28;19928;-41
2022/08/28 18:14:27;;;;;;;;;;;25.90;43.10;;;;;;8430183;28;19924;-41
2022/08/28 18:18:27;;;;;;;;;;;25.90;43.10;;;;;;8430502;28;19927;-42
2022/08/28 18:22:27;;;;;;;;;;;25.90;43.10;;;;;;8430539;28;20376;-42
2022/08/28 18:26:28;;;;;;;;;;;25.90;43.20;;;;;;8411767;28;19923;-42
2022/08/28 18:30:28;;;;;;;;;;;25.90;43.20;;;;;;8412343;28;19921;-41
2022/08/28 18:34:30;;;;;;;;;;;25.90;43.20;;;;;;8430134;28;19916;-41
2022/08/28 18:38:33;;;;;;;;;;;25.90;43.20;;;;;;8429570;28;19923;-42
2022/08/28 18:42:37;;;;;;;;;;;25.90;43.20;;;;;;8429829;28;19947;-41
2022/08/28 18:46:37;;;;;;;;;;;25.90;43.30;;;;;;8429146;28;19913;-41
2022/08/28 18:50:38;;;;;;;;;;;25.80;43.20;;;;;;8429721;28;19931;-41
2022/08/28 18:54:38;;;;;;;;;;;25.80;43.30;;;;;;8429785;28;19969;-42
2022/08/28 18:58:39;;;;;;;;;;;25.80;43.30;;;;;;8429979;28;19916;-41
2022/08/28 19:02:41;;;;;;;;;;;25.80;43.30;;;;;;8429188;28;20011;-41
2022/08/28 19:06:41;;;;;;;;;;;25.80;43.30;;;;;;8428675;28;19912;-41
2022/08/28 19:10:42;;;;;;;;;;;25.80;43.30;;;;;;8429885;28;19976;-41
2022/08/28 19:14:43;;;;;;;;;;;25.80;43.30;;;;;;8410824;28;20003;-41
2022/08/28 19:18:44;;;;;;;;;;;25.80;43.30;;;;;;8434521;28;19939;-41
2022/08/28 19:22:45;;;;;;;;;;;25.80;43.80;;;;;;8435871;28;19958;-41
2022/08/28 19:26:47;;;;;;;;;;;25.80;43.30;;;;;;8435783;28;19917;-41
2022/08/28 19:30:48;;;;;;;;;;;25.80;43.30;;;;;;8435847;28;19920;-41
2022/08/28 19:34:48;;;;;;;;;;;25.80;43.30;;;;;;8435829;28;19938;-41
2022/08/28 19:38:49;;;;;;;;;;;25.80;43.40;;;;;;8435173;28;19916;-41
2022/08/28 19:42:50;;;;;;;;;;;25.80;43.40;;;;;;8435763;28;19923;-42
2022/08/28 19:46:50;;;;;;;;;;;25.80;43.40;;;;;;8435508;28;19923;-41
2022/08/28 19:51:02;;;;;;;;;;;25.80;43.40;;;;;;8435256;28;19932;-41
2022/08/28 19:55:04;;;;;;;;;;;25.80;43.40;;;;;;8435169;28;19916;-41
2022/08/28 19:59:06;;;;;;;;;;;25.70;43.30;;;;;;8434625;28;19916;-41
2022/08/28 20:03:06;;;;;;;;;;;25.70;43.30;;;;;;8434739;28;19916;-41
2022/08/28 20:07:07;;;;;;;;;;;25.80;43.40;;;;;;8434637;28;19939;-41
2022/08/28 20:11:08;;;;;;;;;;;25.70;43.40;;;;;;8434324;28;19920;-42
2022/08/28 20:15:15;;;;;;;;;;;25.70;43.30;;;;;;8434246;28;20007;-42
2022/08/28 20:19:17;;;;;;;;;;;25.70;43.40;;;;;;8434439;28;19920;-42
2022/08/28 20:23:18;;;;;;;;;;;25.70;43.40;;;;;;8433646;28;19916;-42
2022/08/28 20:27:18;;;;;;;;;;;25.70;43.30;;;;;;8433412;28;20292;-42
2022/08/28 20:31:19;;;;;;;;;;;25.70;43.40;;;;;;8433387;28;19928;-42
2022/08/28 20:35:20;;;;;;;;;;;25.70;43.30;;;;;;8433189;28;19959;-42
2022/08/28 20:39:20;;;;;;;;;;;25.70;43.40;;;;;;8433692;28;19916;-42
2022/08/28 20:43:21;;;;;;;;;;;25.70;43.30;;;;;;8433691;28;20307;-41
2022/08/28 20:47:21;;;;;;;;;;;25.70;43.40;;;;;;8433083;28;19916;-42
2022/08/28 20:51:51;;;;;;;;;;;25.70;43.30;;;;;;8433335;28;19926;-41
2022/08/28 20:55:42;;;;;;;;;;;25.70;43.30;;;;;;8433879;28;20356;-42
2022/08/28 20:59:44;;;;;;;;;;;25.70;43.30;;;;;;8432493;28;19978;-42
2022/08/28 21:03:45;;;;;;;;;;;25.70;43.30;;;;;;8433129;28;19922;-42
2022/08/28 21:07:45;;;;;;;;;;;25.60;43.30;;;;;;8432585;28;19917;-41
2022/08/28 21:11:46;;;;;;;;;;;25.70;43.40;;;;;;8431923;28;19933;-42
2022/08/28 21:15:46;;;;;;;;;;;25.70;43.40;;;;;;8432582;28;19920;-42
2022/08/28 21:19:50;;;;;;;;;;;25.60;43.30;;;;;;8432352;28;19916;-42
2022/08/28 21:23:50;;;;;;;;;;;25.60;43.30;;;;;;8431037;28;19939;-42
2022/08/28 21:27:51;;;;;;;;;;;25.60;43.40;;;;;;8432328;28;19958;-42
2022/08/28 21:31:52;;;;;;;;;;;25.70;43.40;;;;;;8431960;28;19924;-42
2022/08/28 21:35:52;;;;;;;;;;;25.60;43.30;;;;;;8431745;28;19916;-42
2022/08/28 21:39:53;;;;;;;;;;;25.60;43.30;;;;;;8431610;28;19916;-41
2022/08/28 21:43:54;;;;;;;;;;;25.60;43.30;;;;;;8431730;28;20011;-42
2022/08/28 21:47:54;;;;;;;;;;;25.60;43.30;;;;;;8430900;28;19973;-41
2022/08/28 21:51:55;;;;;;;;;;;25.60;43.30;;;;;;8431288;28;19928;-42
2022/08/28 21:55:55;;;;;;;;;;;25.60;43.40;;;;;;8431596;28;19949;-42
2022/08/28 21:59:57;;;;;;;;;;;25.60;43.40;;;;;;8430740;28;19924;-42
2022/08/28 22:03:57;;;;;;;;;;;25.60;43.40;;;;;;8445576;28;19916;-42
2022/08/28 22:07:58;;;;;;;;;;;25.60;43.40;;;;;;8430743;28;19913;-41
2022/08/28 22:11:59;;;;;;;;;;;25.60;43.40;;;;;;8411375;28;19924;-40
2022/08/28 22:15:59;;;;;;;;;;;25.60;43.40;;;;;;8430850;28;19921;-41
2022/08/28 22:20:00;;;;;;;;;;;25.60;43.40;;;;;;8430585;28;19916;-42
2022/08/28 22:24:00;;;;;;;;;;;25.60;43.40;;;;;;8411643;28;20015;-43
2022/08/28 22:28:01;;;;;;;;;;;25.60;43.40;;;;;;8412197;28;20003;-41
2022/08/28 22:32:02;;;;;;;;;;;25.60;44.00;;;;;;8430506;28;20393;-41
2022/08/28 22:36:03;;;;;;;;;;;25.60;43.40;;;;;;8430438;28;19916;-42
2022/08/28 22:40:05;;;;;;;;;;;25.60;43.40;;;;;;8429968;28;19962;-42
2022/08/28 22:44:06;;;;;;;;;;;25.60;43.50;;;;;;8428910;28;19912;-42
2022/08/28 22:48:06;;;;;;;;;;;25.60;43.50;;;;;;8430183;28;20330;-42
2022/08/28 22:52:09;;;;;;;;;;;25.50;43.40;;;;;;8429706;28;19928;-41
2022/08/28 22:56:10;;;;;;;;;;;25.50;43.40;;;;;;8394661;28;19924;-42
2022/08/28 23:00:12;;;;;;;;;;;25.50;43.40;;;;;;8429722;28;20357;-42
2022/08/28 23:04:13;;;;;;;;;;;25.50;43.40;;;;;;8429817;28;19912;-42
2022/08/28 23:08:13;;;;;;;;;;;25.50;43.40;;;;;;8429083;28;20356;-42
2022/08/28 23:12:14;;;;;;;;;;;25.50;43.40;;;;;;8429695;28;19975;-42
2022/08/28 23:16:22;;;;;;;;;;;25.50;43.40;;;;;;8429418;28;19920;-42
2022/08/28 23:20:23;;;;;;;;;;;25.50;43.50;;;;;;8411904;28;19912;-42
2022/08/28 23:24:23;;;;;;;;;;;25.50;43.50;;;;;;8429715;28;19916;-42
2022/08/28 23:28:23;;;;;;;;;;;25.40;43.40;;;;;;8429212;28;19912;-42
2022/08/28 23:32:24;;;;;;;;;;;25.50;43.50;;;;;;8428978;28;19931;-42
2022/08/28 23:36:24;;;;;;;;;;;25.40;43.40;;;;;;8429365;28;19916;-42
2022/08/28 23:40:25;;;;;;;;;;;25.50;43.50;;;;;;8429277;28;19920;-42
2022/08/28 23:44:25;;;;;;;;;;;25.50;43.50;;;;;;8428590;28;19926;-42